Loogootee, IN (47553)

3:43 AM EST on February 12, 2016 (GMT -0500)
Rusk Indiana on Raspberry pi | | Change Station
CLOSE
Current Station
Personal Weather Station
Location: Shoals, IN
Elevation: 669 ft
Nearby Weather Stations

Elev 669 ft 38.55 °N, 86.74 °W | Updated 39 seconds ago

Overcast
Overcast
23.3 °F
Feels Like 23 °F
N
0.0
Wind Variable Wind from North
Gusts 0.0 mph

Today
High -- | Low -- °F
--% Chance of Precip.
Yesterday
High -- | Low -- °F
Precip. -- in
Pressure 30.22 in
Visibility 10.0 miles
Clouds Scattered Clouds 6000 ft
Mostly Cloudy 7000 ft
Mostly Cloudy 8500 ft
Windchill 23 °F
Dew Point 15 °F
Humidity 70%
Rainfall 0.00 in
Snow Depth Not available.
7:42 AM 6:21 PM
Waxing Crescent, 18% visible
METAR KDCY 120835Z AUTO 00000KT 10SM SCT060 BKN070 BKN085 M04/M11 A3022 RMK AO2 T10411109
Pressure 30.22 in
Visibility 10.0 miles
Clouds Scattered Clouds 6000 ft
Mostly Cloudy 7000 ft
Mostly Cloudy 8500 ft
Windchill 23 °F
Dew Point 15 °F
Humidity 70%
Rainfall 0.00 in
Snow Depth Not available.
7:42 AM 6:21 PM
Waxing Crescent, 18% visible
METAR KDCY 120835Z AUTO 00000KT 10SM SCT060 BKN070 BKN085 M04/M11 A3022 RMK AO2 T10411109

10-Day Weather Forecast

Almanac

Astronomy

Feb. 12, 2016 Rise Set
Actual Time
Civil Twilight
Nautical Twilight
Astronomical Twilight
Moon
Length of Visible Light
Length of Day
Tomorrow will be .
, % of the Moon is Illuminated

Today's Extremes

State Highs State Lows

Community

WunderPhotos

Upload Photos

1,892,284 photos uploaded!

WunderBlog® & News

Nearby

Air Quality

  Air Quality AQ Index Pollutant
Not available.

Snow Depth

Station Depth Elevation

Earthquake Activity

City Distance Mag. Time & Date
Minimum magnitude displayed is 2.5.

Coastal Water Temperatures

Place Temperature

Stations

Nearby Weather Stations

Station Location Temp. Windchill Dew Point Humidity Wind Precip. Elev Updated Type
                   

Watches & Warnings

There are currently no watches in effect.